Time;durP1;ratioP1;P1;durP2;ratioP2;P2;SDS_P1;SDS_P2;PMS_P1;PMS_P2;Temp;Humidity;BMP_temperature;BMP_pressure;BME280_temperature;BME280_humidity;BME280_pressure;Samples;Min_cycle;Max_cycle;Signal;HPM_P1;HPM_P2
2021/08/01 00:00:00;;;;;;;6.85;2.60;;;19.50;99.90;;;;;;5032936;28;20540;-77
2021/08/01 00:02:25;;;;;;;5.50;2.90;;;19.50;99.90;;;;;;5031919;28;20064;-76
2021/08/01 00:04:52;;;;;;;6.57;2.80;;;19.50;99.90;;;;;;5033080;28;20034;-76
2021/08/01 00:07:18;;;;;;;4.57;2.70;;;19.40;99.90;;;;;;5015320;28;20087;-76
2021/08/01 00:09:43;;;;;;;5.40;2.88;;;19.40;99.90;;;;;;5031981;28;20033;-76
2021/08/01 00:12:09;;;;;;;4.70;2.53;;;19.40;99.90;;;;;;5031256;28;20044;-76
2021/08/01 00:14:35;;;;;;;5.55;3.05;;;19.40;99.90;;;;;;5033212;28;20125;-76
2021/08/01 00:17:01;;;;;;;4.50;2.85;;;19.00;99.90;;;;;;5031798;28;20512;-76
2021/08/01 00:19:27;;;;;;;5.93;3.40;;;19.10;99.90;;;;;;5031316;28;20476;-76
2021/08/01 00:21:52;;;;;;;7.15;3.05;;;19.10;99.90;;;;;;5033040;28;20483;-76
2021/08/01 00:24:18;;;;;;;6.68;3.05;;;19.20;99.90;;;;;;5032854;28;20045;-76
2021/08/01 00:26:44;;;;;;;7.00;3.28;;;19.10;99.90;;;;;;5015272;28;20068;-77
2021/08/01 00:29:10;;;;;;;9.00;3.47;;;19.10;99.90;;;;;;5032801;28;20529;-76
2021/08/01 00:31:35;;;;;;;5.95;2.83;;;19.10;99.90;;;;;;5032761;28;20041;-76
2021/08/01 00:34:01;;;;;;;6.10;3.03;;;19.00;99.90;;;;;;5031578;28;20159;-76
2021/08/01 00:36:27;;;;;;;5.55;3.20;;;18.90;99.90;;;;;;5031475;28;20079;-75
2021/08/01 00:38:52;;;;;;;8.40;3.50;;;19.10;99.90;;;;;;5031035;28;20065;-76
2021/08/01 00:41:18;;;;;;;6.10;3.63;;;19.00;99.90;;;;;;5032621;28;20029;-76
2021/08/01 00:43:44;;;;;;;7.95;3.60;;;19.10;99.90;;;;;;5032663;28;20037;-75
2021/08/01 00:46:11;;;;;;;7.13;3.25;;;19.20;99.90;;;;;;5032103;28;20084;-76
2021/08/01 00:48:39;;;;;;;4.20;2.70;;;19.30;99.90;;;;;;5031426;28;20033;-77
2021/08/01 00:51:06;;;;;;;4.80;2.83;;;19.30;99.90;;;;;;5031065;28;20363;-76
2021/08/01 00:53:32;;;;;;;5.57;2.75;;;19.30;99.90;;;;;;5031597;28;20034;-76
2021/08/01 00:55:58;;;;;;;6.55;3.20;;;19.20;99.90;;;;;;5032279;28;20036;-76
2021/08/01 00:58:23;;;;;;;5.35;3.05;;;19.00;99.90;;;;;;5030978;28;20079;-76
2021/08/01 01:01:08;;;;;;;5.65;3.05;;;19.00;99.90;;;;;;5032174;28;20041;-77
2021/08/01 01:04:12;;;;;;;7.88;3.15;;;18.70;99.90;;;;;;5031128;28;20076;-76
2021/08/01 01:07:07;;;;;;;9.80;3.88;;;18.80;99.90;;;;;;5024162;28;20065;-76
2021/08/01 01:09:44;;;;;;;4.70;3.38;;;18.80;99.90;;;;;;5030767;28;20378;-76
2021/08/01 01:12:15;;;;;;;5.05;3.42;;;18.70;99.90;;;;;;5031813;28;20041;-76
2021/08/01 01:14:54;;;;;;;8.68;3.70;;;18.60;99.90;;;;;;5031078;28;20037;-76
2021/08/01 01:17:28;;;;;;;5.75;2.97;;;18.60;99.90;;;;;;5030758;28;20030;-76
2021/08/01 01:20:16;;;;;;;5.30;3.28;;;18.70;99.90;;;;;;5031148;28;20493;-77
2021/08/01 01:23:29;;;;;;;6.65;2.85;;;18.70;99.90;;;;;;5031941;28;20037;-76
2021/08/01 01:26:15;;;;;;;5.10;2.92;;;18.80;99.90;;;;;;5032141;28;20044;-76
2021/08/01 01:29:04;;;;;;;7.28;2.70;;;18.90;99.90;;;;;;5030605;28;20033;-77
2021/08/01 01:32:00;;;;;;;7.03;2.60;;;19.00;99.90;;;;;;5030479;28;20032;-75
2021/08/01 01:34:38;;;;;;;9.15;2.88;;;19.20;99.90;;;;;;5030681;28;20045;-75
2021/08/01 01:37:11;;;;;;;5.28;2.78;;;19.30;99.90;;;;;;5032267;28;20041;-76
2021/08/01 01:39:40;;;;;;;10.23;2.47;;;19.40;99.90;;;;;;5030454;28;20030;-76
2021/08/01 01:42:10;;;;;;;4.97;2.45;;;19.30;99.90;;;;;;5030648;28;20029;-75
2021/08/01 01:44:38;;;;;;;5.90;2.67;;;19.30;99.90;;;;;;5030853;28;20050;-76
2021/08/01 01:47:05;;;;;;;5.88;2.70;;;19.30;99.90;;;;;;5031780;28;20072;-75
2021/08/01 01:49:31;;;;;;;6.03;2.78;;;19.20;99.90;;;;;;5030328;28;20022;-75
2021/08/01 01:51:58;;;;;;;3.38;2.33;;;19.30;99.90;;;;;;5030374;28;20030;-76
2021/08/01 01:54:25;;;;;;;9.05;3.15;;;19.30;99.90;;;;;;5031466;28;20061;-76
2021/08/01 01:56:52;;;;;;;8.82;2.65;;;19.30;99.90;;;;;;5014179;28;20475;-76
2021/08/01 01:59:18;;;;;;;4.13;2.03;;;19.20;99.90;;;;;;5030198;28;20048;-76
2021/08/01 02:01:44;;;;;;;4.78;2.67;;;19.30;99.90;;;;;;5032139;28;20069;-76
2021/08/01 02:04:09;;;;;;;7.63;2.50;;;19.30;99.90;;;;;;5032119;28;20119;-76
2021/08/01 02:06:35;;;;;;;5.35;2.97;;;19.30;99.90;;;;;;5034130;28;20484;-76
2021/08/01 02:09:18;;;;;;;5.82;2.35;;;19.20;99.90;;;;;;5034367;28;20128;-76
2021/08/01 02:12:17;;;;;;;4.13;2.28;;;19.20;99.90;;;;;;5034502;28;20030;-76
2021/08/01 02:15:06;;;;;;;6.15;2.83;;;19.20;99.90;;;;;;5026322;28;20187;-76
2021/08/01 02:17:46;;;;;;;5.10;2.30;;;19.20;99.90;;;;;;5017196;28;20112;-76
2021/08/01 02:20:15;;;;;;;4.65;2.10;;;19.20;99.90;;;;;;5017468;28;20029;-76
2021/08/01 02:22:44;;;;;;;5.10;2.78;;;19.20;99.90;;;;;;5035363;28;20451;-76
2021/08/01 02:25:10;;;;;;;7.95;3.60;;;19.30;99.90;;;;;;5034159;28;20068;-76
2021/08/01 02:27:38;;;;;;;11.07;2.78;;;19.20;99.90;;;;;;5033565;28;20055;-76
2021/08/01 02:30:05;;;;;;;5.63;2.30;;;19.30;99.90;;;;;;5033756;28;20391;-76
2021/08/01 02:32:32;;;;;;;4.78;2.67;;;19.40;99.90;;;;;;5033464;28;20108;-76
2021/08/01 02:35:00;;;;;;;7.75;2.38;;;19.30;99.90;;;;;;5034842;28;20034;-76
2021/08/01 02:37:27;;;;;;;3.47;2.15;;;19.30;99.90;;;;;;5033618;28;20032;-76
2021/08/01 02:39:54;;;;;;;5.25;2.25;;;19.30;99.90;;;;;;5033764;28;20467;-76
2021/08/01 02:42:22;;;;;;;7.15;2.42;;;19.30;99.90;;;;;;5033524;28;20030;-76
2021/08/01 02:44:51;;;;;;;6.57;2.38;;;19.30;99.90;;;;;;5017011;28;20026;-76
2021/08/01 02:47:20;;;;;;;4.82;2.38;;;19.20;99.90;;;;;;5033641;28;20088;-76
2021/08/01 02:49:46;;;;;;;6.15;2.70;;;19.10;99.90;;;;;;5033331;28;20116;-77
2021/08/01 02:52:19;;;;;;;4.07;2.20;;;19.10;99.90;;;;;;5017111;28;20049;-76
2021/08/01 02:54:49;;;;;;;4.35;2.25;;;19.10;99.90;;;;;;5034552;28;20395;-76
2021/08/01 02:57:17;;;;;;;4.33;2.40;;;19.10;99.90;;;;;;5033276;28;20091;-76
2021/08/01 02:59:44;;;;;;;4.45;2.45;;;19.10;99.90;;;;;;5033059;28;20095;-76
2021/08/01 03:02:11;;;;;;;7.25;2.55;;;19.20;99.90;;;;;;5033051;28;20025;-76
2021/08/01 03:04:42;;;;;;;5.57;2.40;;;19.20;99.90;;;;;;5032833;28;20116;-76
2021/08/01 03:07:11;;;;;;;3.75;2.28;;;19.20;99.90;;;;;;5033194;28;20041;-77
2021/08/01 03:09:37;;;;;;;7.00;2.40;;;19.20;99.90;;;;;;5033102;28;20044;-76
2021/08/01 03:12:09;;;;;;;5.95;1.98;;;19.20;99.90;;;;;;5032811;28;20083;-76
2021/08/01 03:14:35;;;;;;;5.55;2.13;;;19.10;99.90;;;;;;5032954;28;20510;-76
2021/08/01 03:17:00;;;;;;;5.30;2.15;;;19.00;99.90;;;;;;5032989;28;20083;-76
2021/08/01 03:19:26;;;;;;;6.80;2.03;;;19.00;99.90;;;;;;5033668;28;20030;-76
2021/08/01 03:21:52;;;;;;;5.65;2.08;;;18.90;99.90;;;;;;5034336;28;20109;-75
2021/08/01 03:24:18;;;;;;;5.10;2.20;;;18.90;99.90;;;;;;5033913;28;20052;-76
2021/08/01 03:26:43;;;;;;;5.88;2.70;;;18.90;99.90;;;;;;5032754;28;20036;-76
2021/08/01 03:29:09;;;;;;;5.75;2.10;;;18.90;99.90;;;;;;5032760;28;20473;-76
2021/08/01 03:31:35;;;;;;;5.30;2.00;;;18.90;99.90;;;;;;5033539;28;20022;-76
2021/08/01 03:34:00;;;;;;;4.95;2.15;;;18.80;99.90;;;;;;5033656;28;20037;-75
2021/08/01 03:36:26;;;;;;;5.85;2.35;;;18.80;99.90;;;;;;5033888;28;20029;-76
2021/08/01 03:38:52;;;;;;;4.70;2.33;;;18.70;99.90;;;;;;5033501;28;20084;-76
2021/08/01 03:41:17;;;;;;;4.03;2.38;;;18.70;99.90;;;;;;5033890;28;20037;-76
2021/08/01 03:43:43;;;;;;;6.70;2.40;;;18.60;99.90;;;;;;5032001;28;20068;-76
2021/08/01 03:46:09;;;;;;;4.28;1.95;;;18.50;99.90;;;;;;5033363;28;20049;-77
2021/08/01 03:48:35;;;;;;;3.78;2.00;;;18.50;99.90;;;;;;5033205;28;20389;-76
2021/08/01 03:51:01;;;;;;;4.20;1.98;;;18.60;99.90;;;;;;5032019;28;20041;-77
2021/08/01 03:53:27;;;;;;;5.13;2.28;;;18.50;99.90;;;;;;5031693;28;20033;-76
2021/08/01 03:55:53;;;;;;;4.32;2.20;;;18.50;99.90;;;;;;5033177;28;20034;-77
2021/08/01 03:58:18;;;;;;;3.95;2.10;;;18.40;99.90;;;;;;5033507;28;20095;-77
2021/08/01 04:00:48;;;;;;;5.90;1.73;;;18.40;99.90;;;;;;5033358;28;20053;-77
2021/08/01 04:03:14;;;;;;;5.20;2.15;;;18.30;99.90;;;;;;5031933;28;20025;-76
2021/08/01 04:05:40;;;;;;;3.47;2.08;;;18.30;99.90;;;;;;5032950;28;20033;-76
2021/08/01 04:08:06;;;;;;;3.55;1.80;;;18.30;99.90;;;;;;5031765;28;20363;-76
2021/08/01 04:10:32;;;;;;;2.72;1.70;;;18.30;99.90;;;;;;5032714;28;20037;-76
2021/08/01 04:12:57;;;;;;;3.15;1.95;;;18.30;99.90;;;;;;5033166;28;20035;-76
2021/08/01 04:15:23;;;;;;;7.80;2.38;;;18.30;99.90;;;;;;5032849;28;20043;-76
2021/08/01 04:17:48;;;;;;;5.32;1.92;;;18.30;99.90;;;;;;5031633;28;20371;-76
2021/08/01 04:20:15;;;;;;;3.13;1.83;;;18.30;99.90;;;;;;5031383;28;20033;-76
2021/08/01 04:22:42;;;;;;;5.03;2.17;;;18.30;99.90;;;;;;5032682;28;20120;-76
2021/08/01 04:25:09;;;;;;;5.60;1.80;;;18.30;99.90;;;;;;5031749;28;20120;-77
2021/08/01 04:27:35;;;;;;;6.53;2.00;;;18.20;99.90;;;;;;5032272;28;20038;-77
2021/08/01 04:30:02;;;;;;;4.05;2.30;;;18.30;99.90;;;;;;5014984;28;20048;-77
2021/08/01 04:32:28;;;;;;;6.03;2.17;;;18.30;99.90;;;;;;5032297;28;20033;-77
2021/08/01 04:34:54;;;;;;;5.40;1.60;;;18.40;99.90;;;;;;5031213;28;20036;-76
2021/08/01 04:37:19;;;;;;;5.38;2.28;;;18.40;99.90;;;;;;5032507;28;20040;-77
2021/08/01 04:39:45;;;;;;;6.60;2.30;;;18.50;99.90;;;;;;5032114;28;20036;-76
2021/08/01 04:42:11;;;;;;;3.38;1.92;;;18.40;99.90;;;;;;5032706;28;20089;-76
2021/08/01 04:44:37;;;;;;;5.63;2.95;;;18.40;99.90;;;;;;5032435;28;20029;-77
2021/08/01 04:47:02;;;;;;;4.88;1.95;;;18.40;99.90;;;;;;5032281;28;20141;-77
2021/08/01 04:49:28;;;;;;;6.00;2.30;;;18.40;99.90;;;;;;5031040;28;20506;-77
2021/08/01 04:51:54;;;;;;;3.45;1.90;;;18.40;99.90;;;;;;5032324;28;20042;-76
2021/08/01 04:54:19;;;;;;;3.95;1.88;;;18.40;99.90;;;;;;5031245;28;20040;-77
2021/08/01 04:56:46;;;;;;;8.43;2.10;;;18.40;99.90;;;;;;5032388;28;20041;-77
2021/08/01 04:59:12;;;;;;;2.90;1.92;;;18.40;99.90;;;;;;5032032;28;20153;-77
2021/08/01 05:01:38;;;;;;;5.45;2.00;;;18.40;99.90;;;;;;5032436;28;20036;-77
2021/08/01 05:04:04;;;;;;;4.63;2.00;;;18.40;99.90;;;;;;5031152;28;20034;-77
2021/08/01 05:06:30;;;;;;;4.22;2.00;;;18.40;99.90;;;;;;5030758;28;20032;-77
2021/08/01 05:08:55;;;;;;;4.68;1.90;;;18.40;99.90;;;;;;5032035;28;20144;-78
2021/08/01 05:11:21;;;;;;;5.03;2.33;;;18.40;99.90;;;;;;5014340;28;20030;-77
2021/08/01 05:13:47;;;;;;;4.55;1.60;;;18.40;99.90;;;;;;5032122;28;20042;-76
2021/08/01 05:16:16;;;;;;;4.63;2.38;;;18.50;99.90;;;;;;5031837;28;20061;-76
2021/08/01 05:18:43;;;;;;;5.57;2.60;;;18.50;99.90;;;;;;5031905;28;20375;-77
2021/08/01 05:21:09;;;;;;;6.68;1.98;;;18.50;99.90;;;;;;5030867;28;20047;-77
2021/08/01 05:23:35;;;;;;;3.88;1.60;;;18.60;99.90;;;;;;5030581;28;20029;-77
2021/08/01 05:26:01;;;;;;;4.72;1.90;;;18.60;99.90;;;;;;5032192;28;20114;-77
2021/08/01 05:28:26;;;;;;;2.97;1.83;;;18.70;99.90;;;;;;5032011;28;20057;-77
2021/08/01 05:30:52;;;;;;;4.80;1.90;;;18.70;99.90;;;;;;5031908;28;20032;-77
2021/08/01 05:33:18;;;;;;;4.03;2.45;;;18.70;99.90;;;;;;5032066;28;20049;-77
2021/08/01 05:35:44;;;;;;;4.35;2.10;;;18.70;99.90;;;;;;5031799;28;20467;-77
2021/08/01 05:38:09;;;;;;;5.35;2.00;;;18.70;99.90;;;;;;5030968;28;20113;-77
2021/08/01 05:40:35;;;;;;;5.07;1.90;;;18.70;99.90;;;;;;5034807;28;20466;-77
2021/08/01 05:43:02;;;;;;;3.58;2.03;;;18.80;99.90;;;;;;5035809;28;20117;-77
2021/08/01 05:45:29;;;;;;;5.18;2.25;;;18.70;99.90;;;;;;5034367;28;20383;-77
2021/08/01 05:47:55;;;;;;;6.40;2.08;;;18.80;99.90;;;;;;5017925;28;20029;-77
2021/08/01 05:50:21;;;;;;;3.38;2.03;;;18.60;99.90;;;;;;5034165;28;20072;-77
2021/08/01 05:52:47;;;;;;;3.33;2.00;;;18.60;99.90;;;;;;5035394;28;20061;-77
2021/08/01 05:55:13;;;;;;;4.68;2.88;;;18.70;99.90;;;;;;5035789;28;20060;-77
2021/08/01 05:57:39;;;;;;;6.35;2.33;;;18.80;99.90;;;;;;5035590;28;20434;-77
2021/08/01 06:00:06;;;;;;;3.00;1.73;;;18.80;99.90;;;;;;5035318;28;20033;-77
2021/08/01 06:02:32;;;;;;;3.05;1.83;;;18.80;99.90;;;;;;5035573;28;20155;-78
2021/08/01 06:04:57;;;;;;;5.13;2.30;;;18.40;99.90;;;;;;5034618;28;20108;-78
2021/08/01 06:07:23;;;;;;;4.20;1.88;;;18.40;99.90;;;;;;5035288;28;20037;-77
2021/08/01 06:09:49;;;;;;;6.43;1.73;;;18.30;99.90;;;;;;5033942;28;20390;-77
2021/08/01 06:12:15;;;;;;;3.70;1.98;;;18.50;99.90;;;;;;5035475;28;20030;-77
2021/08/01 06:14:42;;;;;;;4.38;2.03;;;18.50;99.90;;;;;;5033695;28;20393;-78
2021/08/01 06:17:09;;;;;;;6.97;2.15;;;18.60;99.90;;;;;;5035001;28;20614;-78
2021/08/01 06:19:34;;;;;;;4.60;2.50;;;18.70;99.90;;;;;;5017346;28;20034;-77
2021/08/01 06:22:00;;;;;;;4.15;2.13;;;18.60;99.90;;;;;;5035321;28;20120;-77
2021/08/01 06:24:26;;;;;;;4.53;2.70;;;18.90;99.90;;;;;;5035329;28;20497;-77
2021/08/01 06:26:52;;;;;;;4.82;2.17;;;19.10;99.90;;;;;;5035084;28;20037;-77
2021/08/01 06:29:17;;;;;;;6.07;2.83;;;19.30;99.90;;;;;;5033910;28;20356;-78
2021/08/01 06:31:43;;;;;;;5.05;2.70;;;19.40;99.90;;;;;;5034941;28;20393;-78
2021/08/01 06:34:09;;;;;;;7.05;2.58;;;19.50;99.90;;;;;;5034893;28;20095;-77
2021/08/01 06:36:35;;;;;;;4.07;2.20;;;19.60;99.90;;;;;;5034810;28;20083;-78
2021/08/01 06:39:00;;;;;;;3.80;2.60;;;19.70;99.90;;;;;;5033738;28;20033;-77
2021/08/01 06:41:26;;;;;;;5.00;2.80;;;19.40;99.90;;;;;;5035001;28;20400;-77
2021/08/01 06:43:52;;;;;;;6.03;2.60;;;19.40;99.90;;;;;;5033580;28;20120;-77
2021/08/01 06:46:18;;;;;;;6.03;2.60;;;19.00;99.90;;;;;;5033263;28;20112;-77
2021/08/01 06:48:43;;;;;;;5.65;2.03;;;18.80;99.90;;;;;;5034545;28;20041;-77
2021/08/01 06:51:09;;;;;;;4.45;2.17;;;19.10;99.90;;;;;;5032964;28;20075;-78
2021/08/01 06:53:35;;;;;;;3.63;1.85;;;19.50;99.90;;;;;;5033106;28;20041;-77
2021/08/01 06:56:01;;;;;;;6.25;2.10;;;19.20;99.90;;;;;;5033160;28;20044;-77
2021/08/01 06:58:26;;;;;;;3.88;2.13;;;19.40;99.90;;;;;;5034445;28;20479;-77
2021/08/01 07:00:54;;;;;;;4.80;2.55;;;19.60;99.90;;;;;;5032872;28;20108;-77
2021/08/01 07:03:20;;;;;;;7.90;3.70;;;19.90;99.90;;;;;;5034543;28;20065;-77
2021/08/01 07:05:46;;;;;;;7.97;3.25;;;19.90;99.90;;;;;;5034522;28;20080;-77
2021/08/01 07:08:12;;;;;;;4.88;3.00;;;19.90;99.90;;;;;;5034064;28;20033;-77
2021/08/01 07:10:38;;;;;;;9.40;4.55;;;19.90;99.90;;;;;;5032641;28;20037;-77
2021/08/01 07:13:08;;;;;;;6.05;3.00;;;20.00;99.90;;;;;;5032710;28;20049;-77
2021/08/01 07:15:37;;;;;;;4.95;2.20;;;19.90;99.90;;;;;;5032617;28;20034;-77
2021/08/01 07:18:04;;;;;;;3.63;1.80;;;20.20;99.90;;;;;;5032860;28;20119;-77
2021/08/01 07:20:30;;;;;;;4.05;3.08;;;20.30;99.90;;;;;;5032895;28;20195;-77
2021/08/01 07:22:57;;;;;;;3.22;1.70;;;20.30;99.90;;;;;;5033841;28;20067;-77
2021/08/01 07:25:23;;;;;;;4.82;1.67;;;20.50;99.90;;;;;;5016459;28;20029;-77
2021/08/01 07:27:53;;;;;;;4.90;2.33;;;20.50;99.90;;;;;;5033861;28;20045;-77
2021/08/01 07:30:20;;;;;;;4.63;2.05;;;20.70;99.90;;;;;;5032705;28;20037;-77
2021/08/01 07:32:46;;;;;;;4.43;1.70;;;20.50;99.90;;;;;;5032215;28;20055;-77
2021/08/01 07:35:12;;;;;;;5.60;1.98;;;20.70;99.90;;;;;;5033857;28;20474;-77
2021/08/01 07:37:38;;;;;;;2.63;1.73;;;20.50;99.90;;;;;;5032302;28;20037;-77
2021/08/01 07:40:05;;;;;;;2.72;1.50;;;20.50;99.90;;;;;;5032383;28;20045;-77
2021/08/01 07:42:31;;;;;;;5.65;1.83;;;20.60;99.90;;;;;;5032335;28;20037;-77
2021/08/01 07:45:02;;;;;;;4.80;2.13;;;20.80;99.90;;;;;;5032224;28;20035;-75
2021/08/01 07:47:27;;;;;;;;;;;20.80;99.90;;;;;;5017107;28;20032;-81
2021/08/01 07:49:53;;;;;;;5.10;2.00;;;20.70;99.90;;;;;;5033244;28;19913;-80
2021/08/01 07:52:20;;;;;;;4.57;2.00;;;20.40;99.90;;;;;;5033519;28;20060;-81
2021/08/01 07:54:47;;;;;;;3.60;1.92;;;20.70;99.90;;;;;;5031969;28;20072;-80
2021/08/01 07:57:30;;;;;;;4.25;1.85;;;20.90;99.90;;;;;;5032141;28;20029;-80
2021/08/01 08:00:02;;;;;;;5.65;1.85;;;20.80;99.90;;;;;;5032129;28;20037;-81
2021/08/01 08:02:29;;;;;;;4.40;1.77;;;21.00;99.90;;;;;;5030929;28;20029;-80
2021/08/01 08:04:55;;;;;;;3.22;1.67;;;20.70;99.90;;;;;;5033096;28;20485;-80
2021/08/01 08:07:21;;;;;;;4.82;2.15;;;20.60;99.90;;;;;;5015890;28;20490;-81
2021/08/01 08:09:47;;;;;;;5.13;2.00;;;20.80;99.90;;;;;;5032881;28;20121;-80
2021/08/01 08:12:13;;;;;;;2.72;1.50;;;21.00;99.90;;;;;;5032224;28;20525;-80
2021/08/01 08:14:39;;;;;;;4.07;1.80;;;21.00;99.90;;;;;;5031513;28;20053;-80
2021/08/01 08:17:06;;;;;;;9.43;5.45;;;21.00;99.90;;;;;;5032948;28;20493;-80
2021/08/01 08:19:32;;;;;;;3.15;1.90;;;20.90;99.90;;;;;;5032215;28;20036;-80
2021/08/01 08:21:58;;;;;;;3.45;1.90;;;20.50;99.90;;;;;;5032743;28;20032;-82
2021/08/01 08:24:25;;;;;;;14.75;7.82;;;20.60;99.90;;;;;;5015151;28;20029;-84
2021/08/01 08:26:52;;;;;;;5.72;2.65;;;20.70;99.90;;;;;;5031602;28;20034;-83
2021/08/01 08:29:18;;;;;;;6.55;2.35;;;21.00;99.90;;;;;;5032723;28;20030;-82
2021/08/01 08:31:50;;;;;;;4.13;1.67;;;21.00;99.90;;;;;;5031864;28;20076;-82
2021/08/01 08:34:17;;;;;;;9.13;5.03;;;21.40;99.90;;;;;;5031488;28;20030;-81
2021/08/01 08:36:47;;;;;;;3.67;2.00;;;21.60;99.90;;;;;;5032751;28;20290;-81
2021/08/01 08:39:14;;;;;;;3.50;1.73;;;21.70;99.90;;;;;;5031638;28;20033;-81
2021/08/01 08:41:40;;;;;;;4.00;1.80;;;21.80;99.90;;;;;;5031279;28;20310;-81
2021/08/01 08:44:06;;;;;;;4.22;1.80;;;22.00;99.60;;;;;;5032883;28;20528;-82
2021/08/01 08:46:35;;;;;;;2.95;1.60;;;21.50;99.90;;;;;;5031185;28;20041;-81
2021/08/01 08:49:15;;;;;;;6.43;2.35;;;21.60;99.90;;;;;;5030959;28;20037;-81
2021/08/01 08:51:44;;;;;;;4.35;2.10;;;21.60;99.90;;;;;;5031327;28;20064;-80
2021/08/01 08:54:41;;;;;;;6.78;3.60;;;21.90;99.30;;;;;;5031466;28;20034;-80
2021/08/01 08:57:25;;;;;;;3.10;1.92;;;21.50;99.90;;;;;;5031564;28;20083;-80
2021/08/01 09:00:00;;;;;;;6.95;2.05;;;21.80;99.40;;;;;;5031287;28;20032;-79
2021/08/01 09:02:27;;;;;;;5.40;2.88;;;21.60;99.90;;;;;;5031144;28;20055;-80
2021/08/01 09:04:52;;;;;;;4.70;2.22;;;21.20;99.60;;;;;;5014554;28;20505;-79
2021/08/01 09:07:18;;;;;;;4.65;2.28;;;21.30;99.90;;;;;;5032591;28;20068;-81
2021/08/01 09:09:44;;;;;;;5.82;3.33;;;20.80;99.90;;;;;;5031873;28;20103;-81
2021/08/01 09:12:09;;;;;;;3.83;2.03;;;21.00;99.90;;;;;;5032153;28;20038;-80
2021/08/01 09:14:35;;;;;;;4.53;2.42;;;21.40;99.90;;;;;;5014145;28;20033;-81
2021/08/01 09:17:01;;;;;;;4.65;2.40;;;21.40;99.90;;;;;;5032253;28;20378;-80
2021/08/01 09:19:39;;;;;;;4.88;2.65;;;21.10;99.90;;;;;;5032013;28;20041;-80
2021/08/01 09:22:17;;;;;;;5.60;2.67;;;21.50;99.90;;;;;;5032279;28;20061;-81
2021/08/01 09:24:46;;;;;;;3.88;2.72;;;21.70;99.90;;;;;;5031161;28;20034;-80
2021/08/01 09:27:33;;;;;;;4.85;2.42;;;21.40;99.90;;;;;;5032193;28;20036;-80
2021/08/01 09:30:02;;;;;;;9.60;5.18;;;21.80;99.50;;;;;;5028800;28;20045;-80
2021/08/01 09:32:49;;;;;;;5.63;2.47;;;21.80;99.60;;;;;;5032100;28;20056;-80
2021/08/01 09:35:22;;;;;;;5.18;3.90;;;22.10;99.30;;;;;;5032237;28;20112;-79
2021/08/01 09:37:57;;;;;;;4.97;2.78;;;22.30;98.60;;;;;;5032942;28;20037;-80
2021/08/01 09:40:32;;;;;;;6.55;2.70;;;22.20;98.40;;;;;;5031199;28;20029;-80
2021/08/01 09:43:11;;;;;;;4.75;2.08;;;22.40;98.00;;;;;;5014376;28;20022;-81
2021/08/01 09:45:37;;;;;;;5.28;2.25;;;22.20;97.90;;;;;;5031690;28;20049;-81
2021/08/01 09:48:20;;;;;;;3.08;1.40;;;22.20;98.30;;;;;;5031599;28;20033;-81
2021/08/01 09:51:02;;;;;;;4.15;1.58;;;22.50;97.20;;;;;;5030343;28;20509;-80
2021/08/01 09:53:29;;;;;;;2.55;1.25;;;22.20;97.20;;;;;;5014347;28;20398;-81
2021/08/01 09:56:23;;;;;;;3.53;1.40;;;22.10;96.90;;;;;;5030199;28;20025;-80
2021/08/01 09:58:50;;;;;;;2.00;1.02;;;22.00;97.10;;;;;;5030561;28;20038;-80
2021/08/01 10:01:17;;;;;;;2.83;1.30;;;22.20;96.60;;;;;;5030333;28;20033;-80
2021/08/01 10:03:49;;;;;;;2.67;1.10;;;21.80;96.00;;;;;;5030260;28;20041;-81
2021/08/01 10:06:18;;;;;;;2.20;1.10;;;22.00;96.10;;;;;;5030280;28;20037;-82
2021/08/01 10:08:54;;;;;;;3.15;1.30;;;22.20;95.80;;;;;;5016693;28;20034;-81
2021/08/01 10:11:23;;;;;;;6.97;2.83;;;22.40;95.60;;;;;;5031448;28;20033;-80
2021/08/01 10:13:55;;;;;;;2.85;1.00;;;22.20;96.00;;;;;;5031324;28;20212;-81
2021/08/01 10:16:22;;;;;;;4.10;1.27;;;22.40;96.00;;;;;;5030422;28;20034;-82
2021/08/01 10:18:51;;;;;;;3.65;1.50;;;22.40;95.60;;;;;;5031157;28;20068;-82
2021/08/01 10:21:23;;;;;;;2.92;1.50;;;22.70;95.50;;;;;;5013511;28;20395;-81
2021/08/01 10:23:57;;;;;;;2.42;1.23;;;22.70;95.70;;;;;;5013716;28;20486;-82
2021/08/01 10:26:31;;;;;;;2.58;1.40;;;22.80;95.20;;;;;;5018540;28;20025;-81
2021/08/01 10:29:01;;;;;;;2.97;1.20;;;22.90;94.10;;;;;;5017691;28;20734;-81
2021/08/01 10:31:36;;;;;;;4.07;0.93;;;23.00;94.30;;;;;;5033450;28;20040;-80
2021/08/01 10:34:17;;;;;;;5.43;1.27;;;22.90;94.30;;;;;;5034864;28;20029;-80
2021/08/01 10:36:55;;;;;;;3.75;1.40;;;23.00;94.80;;;;;;5034817;28;20094;-80
2021/08/01 10:39:26;;;;;;;3.35;1.23;;;23.00;95.20;;;;;;5017026;28;20445;-81
2021/08/01 10:41:53;;;;;;;2.78;1.45;;;23.10;94.80;;;;;;5034836;28;20118;-80
2021/08/01 10:44:21;;;;;;;2.65;1.17;;;23.40;94.50;;;;;;5033594;28;20045;-81
2021/08/01 10:46:47;;;;;;;2.95;1.15;;;23.00;94.90;;;;;;5033055;28;20102;-81
2021/08/01 10:49:14;;;;;;;2.72;1.05;;;23.20;94.80;;;;;;5034462;28;20454;-81
2021/08/01 10:51:40;;;;;;;1.88;1.08;;;23.40;94.00;;;;;;5016850;28;20439;-82
2021/08/01 10:54:23;;;;;;;3.92;1.88;;;23.60;93.50;;;;;;5016914;28;20390;-81
2021/08/01 10:57:13;;;;;;;3.40;1.50;;;23.60;93.30;;;;;;5034521;28;20045;-81
2021/08/01 10:59:45;;;;;;;2.60;1.30;;;23.00;94.00;;;;;;5033169;28;20600;-82
2021/08/01 11:02:20;;;;;;;19.77;11.68;;;23.40;94.00;;;;;;5033637;28;20037;-82
2021/08/01 11:04:48;;;;;;;2.15;1.00;;;23.10;93.90;;;;;;5034498;28;20037;-82
2021/08/01 11:07:33;;;;;;;2.95;1.08;;;22.90;94.50;;;;;;5032768;28;20483;-82
2021/08/01 11:10:10;;;;;;;2.58;1.13;;;23.10;94.40;;;;;;5033777;28;20482;-81
2021/08/01 11:12:45;;;;;;;3.47;1.42;;;23.20;94.10;;;;;;5034076;28;20034;-81
2021/08/01 11:15:13;;;;;;;3.47;0.90;;;23.50;92.90;;;;;;5033846;28;20045;-82
2021/08/01 11:17:42;;;;;;;3.13;1.23;;;23.80;92.40;;;;;;5016607;28;20482;-81
2021/08/01 11:20:20;;;;;;;2.15;0.93;;;23.70;92.60;;;;;;5033606;28;20172;-82
2021/08/01 11:22:45;;;;;;;2.83;1.17;;;23.90;92.50;;;;;;5034168;28;20042;-81
2021/08/01 11:25:27;;;;;;;3.92;1.05;;;23.90;92.20;;;;;;5032802;28;20052;-81
2021/08/01 11:28:09;;;;;;;1.70;1.20;;;23.90;92.40;;;;;;5032692;28;20167;-82
2021/08/01 11:30:49;;;;;;;3.03;1.60;;;24.10;93.20;;;;;;5033751;28;20033;-82
2021/08/01 11:33:33;;;;;;;2.75;1.10;;;24.10;93.00;;;;;;5033394;28;20033;-82
2021/08/01 11:36:17;;;;;;;3.88;1.00;;;23.80;92.80;;;;;;5015988;28;20041;-82
2021/08/01 11:39:00;;;;;;;2.00;1.20;;;23.80;93.10;;;;;;5033271;28;20076;-83
2021/08/01 11:41:37;;;;;;;2.97;1.00;;;24.20;92.60;;;;;;5033727;28;20042;-82
2021/08/01 11:44:20;;;;;;;2.97;1.20;;;24.20;92.80;;;;;;5033356;28;20057;-82
2021/08/01 11:47:00;;;;;;;5.55;1.63;;;24.30;92.40;;;;;;5033331;28;20053;-81
2021/08/01 11:49:37;;;;;;;2.55;1.10;;;24.00;92.30;;;;;;5033518;28;20022;-82
2021/08/01 11:52:06;;;;;;;2.90;1.20;;;24.10;92.20;;;;;;5033860;28;20029;-81
2021/08/01 11:54:41;;;;;;;2.22;1.25;;;23.90;92.50;;;;;;5017556;28;20037;-81
2021/08/01 11:57:15;;;;;;;2.95;1.30;;;24.10;92.00;;;;;;5031961;28;20076;-82
2021/08/01 11:59:43;;;;;;;3.75;1.30;;;24.00;92.60;;;;;;5033387;28;20386;-81
2021/08/01 12:02:14;;;;;;;2.20;1.27;;;24.10;92.00;;;;;;5032905;28;20548;-81
2021/08/01 12:05:18;;;;;;;3.47;1.17;;;24.40;92.00;;;;;;5015859;28;20041;-81
2021/08/01 12:07:52;;;;;;;2.47;0.93;;;24.40;91.50;;;;;;5031976;28;20078;-82
2021/08/01 12:10:25;;;;;;;4.43;1.27;;;24.70;91.10;;;;;;5015900;28;20030;-81
2021/08/01 12:12:56;;;;;;;4.70;1.40;;;24.40;91.40;;;;;;5032205;28;20087;-81
2021/08/01 12:15:22;;;;;;;2.72;1.20;;;24.60;91.20;;;;;;5033083;28;20041;-81
2021/08/01 12:17:49;;;;;;;4.22;1.38;;;24.80;92.20;;;;;;5032730;28;20052;-81
2021/08/01 12:20:16;;;;;;;3.20;1.00;;;24.80;91.80;;;;;;5031099;28;20025;-81
2021/08/01 12:22:50;;;;;;;2.60;1.10;;;24.60;91.10;;;;;;5031669;28;20033;-82
2021/08/01 12:25:16;;;;;;;4.22;1.40;;;24.80;90.70;;;;;;5032431;28;20022;-81
2021/08/01 12:27:43;;;;;;;3.22;1.20;;;24.70;91.00;;;;;;5031308;28;20379;-82
2021/08/01 12:30:19;;;;;;;3.53;1.40;;;25.00;91.60;;;;;;5031160;28;20338;-81
2021/08/01 12:32:51;;;;;;;1.70;1.13;;;25.10;91.60;;;;;;5032357;28;20037;-81
2021/08/01 12:35:26;;;;;;;4.00;1.60;;;25.40;90.60;;;;;;5031163;28;20044;-81
2021/08/01 12:38:05;;;;;;;3.60;1.40;;;25.70;91.10;;;;;;5032380;28;20077;-81
2021/08/01 12:40:38;;;;;;;5.57;2.30;;;26.00;90.40;;;;;;5015696;28;20100;-81
2021/08/01 12:43:17;;;;;;;3.20;1.02;;;26.40;90.00;;;;;;5031140;28;20113;-81
2021/08/01 12:45:46;;;;;;;2.33;1.30;;;26.40;87.70;;;;;;5030897;28;20485;-81
2021/08/01 12:48:25;;;;;;;3.95;1.42;;;25.30;89.20;;;;;;5030592;28;20037;-81
2021/08/01 12:50:59;;;;;;;2.65;1.13;;;25.50;89.50;;;;;;5031158;28;20482;-81
2021/08/01 12:53:27;;;;;;;3.17;1.40;;;25.60;89.20;;;;;;5031088;28;20033;-81
2021/08/01 12:56:02;;;;;;;4.97;1.30;;;25.50;89.00;;;;;;5030928;28;20064;-81
2021/08/01 12:58:42;;;;;;;2.60;1.25;;;25.60;88.80;;;;;;5015991;28;20045;-81
2021/08/01 13:01:10;;;;;;;4.93;1.50;;;25.70;86.90;;;;;;5032437;28;20061;-81